Latest Weather Observations for Camooweal

IDD60801

Issued at 6:31 am CST Monday 15 February 2016 (issued every 30 minutes, with the page automatically refreshed every 10 minutes)

About weather observations | Map of weather stations | Latest weather observations for NT | Other Formats
Station Details ID: 037010 Name: CAMOOWEAL TOWNSHIP Lat: -19.92 Lon: 138.12 Height: 231.2 m
Data from the previous 72 hours. | See also: Recent months at Camooweal
Date/Time
CST
Temp
°C
App
Temp
°C
Dew
Point
Rel
Hum
%
Delta-T
°C
Wind Press
QNH
hPa
Press
MSL
hPa
Rain
since 9 am
mm
Dir
 
Spd
km/h
Gust
km/h
Spd
kts
Gust
kts
15/06:30am 26.4 29.7 22.5 79 2.7 NNW 9 13 5 7 1009.3 1007.6 0.0
15/06:00am 26.1 29.2 22.2 79 2.6 N 9 15 5 8 1009.1 1007.4 0.0
15/05:30am 26.3 29.3 21.9 77 3.0 NNW 9 13 5 7 1008.6 1006.9 0.0
15/05:00am 26.5 29.4 21.7 75 3.2 NNW 9 13 5 7 1008.4 1006.7 0.0
15/04:30am 26.8 30.0 21.6 73 3.5 NNW 7 11 4 6 1008.1 1006.4 0.0
15/04:00am 27.0 29.9 21.1 70 3.9 NW 7 11 4 6 1008.0 1006.3 0.0
15/03:30am 27.3 30.1 20.4 66 4.6 NW 6 11 3 6 1007.7 1005.9 0.0
15/03:00am 27.5 30.3 18.8 59 5.6 NNW 2 7 1 4 1007.8 1006.0 0.0
15/02:30am 28.2 29.7 17.7 53 6.7 NNW 6 7 3 4 1007.9 1006.2 0.0
15/02:00am 29.0 29.4 17.2 49 7.5 NNW 11 17 6 9 1007.9 1006.2 0.0
15/01:30am 29.1 28.6 14.9 42 8.7 NNW 11 15 6 8 1008.2 1006.5 0.0
15/01:00am 29.4 28.0 12.3 34 10.1 NNW 11 17 6 9 1008.3 1006.6 0.0
15/12:30am 29.6 28.8 11.6 33 10.5 NNW 7 13 4 7 1008.8 1007.1 0.0
15/12:00am 29.5 29.9 11.1 32 10.7 CALM 0 0 0 0 1008.8 1007.1 0.0
 
Date/Time
CST
Temp
°C
App
Temp
°C
Dew
Point
Rel
Hum
%
Delta-T
°C
Wind Press
QNH
hPa
Press
MSL
hPa
Rain
since 9 am
mm
Dir
 
Spd
km/h
Gust
km/h
Spd
kts
Gust
kts
14/11:30pm 31.5 30.6 10.8 28 12.1 NE 6 9 3 5 1008.9 1007.2 0.0
14/11:00pm 30.3 29.2 9.8 28 11.7 E 6 9 3 5 1008.9 1007.2 0.0
14/10:30pm 32.7 30.1 9.5 24 13.3 E 13 17 7 9 1008.9 1007.2 0.0
14/10:00pm 31.7 29.3 8.7 24 13.0 ESE 11 15 6 8 1008.7 1007.0 0.0
14/09:30pm 33.0 30.5 9.7 24 13.4 E 13 17 7 9 1008.3 1006.6 0.0
14/09:00pm 33.3 32.5 11.8 27 12.8 E 7 13 4 7 1008.0 1006.3 0.0
14/08:30pm 33.4 33.6 11.9 27 12.9 SE 2 11 1 6 1007.8 1006.0 0.0
14/08:00pm 33.9 34.8 12.8 28 12.8 CALM 0 0 0 0 1007.6 1005.8 0.0
14/07:30pm 35.9 36.0 10.2 21 15.1 CALM 0 0 0 0 1007.1 1005.3 0.0
14/07:00pm 37.0 35.2 9.6 19 16.0 E 9 11 5 6 1006.8 1005.0 0.0
14/06:30pm 38.4 36.3 8.1 16 17.5 ESE 9 15 5 8 1006.5 1004.7 0.0
14/06:00pm 39.7 37.8 9.2 16 17.9 E 9 17 5 9 1006.3 1004.5 0.0
14/05:30pm 40.1 36.3 7.5 14 18.8 SE 17 26 9 14 1005.9 1004.2 0.0
14/05:00pm 40.7 37.0 8.0 14 19.0 SSE 17 24 9 13 1005.7 1004.0 0.0
14/04:30pm 40.5 37.1 7.8 14 19.0 ESE 15 22 8 12 1005.5 1003.8 0.0
14/04:00pm 41.3 38.5 8.5 14 19.2 SE 13 24 7 13 1005.4 1003.7 0.0
14/03:30pm 41.2 38.9 7.3 13 19.6 S 9 26 5 14 1005.5 1003.8 0.0
14/03:00pm 41.1 38.0 7.2 13 19.5 SE 13 24 7 13 1005.8 1004.1 0.0
14/02:30pm 40.6 37.3 7.9 14 19.0 SSE 15 24 8 13 1006.3 1004.5 0.0
14/02:00pm 40.5 36.2 7.8 14 18.9 S 20 32 11 17 1006.5 1004.7 0.0
14/01:30pm 40.1 36.7 7.5 14 18.8 ESE 15 30 8 16 1007.0 1005.2 0.0
14/01:00pm 40.3 38.7 8.7 15 18.5 SSW 7 24 4 13 1007.2 1005.4 0.0
14/12:30pm 39.9 38.1 9.3 16 18.1 S 9 20 5 11 1007.6 1005.8 0.0
14/12:00pm 39.0 38.0 10.4 18 17.1 WSW 6 22 3 12 1008.2 1006.5 0.0
14/11:30am 38.7 39.1 12.5 21 16.1 S 2 11 1 6 1008.6 1006.9 0.0
14/11:00am 37.9 38.5 13.2 23 15.3 WNW 2 11 1 6 1009.0 1007.3 0.0
14/10:30am 37.1 37.2 13.8 25 14.5 WSW 6 17 3 9 1009.3 1007.6 0.0
14/10:00am 36.6 36.9 14.6 27 13.8 W 6 13 3 7 1009.6 1007.9 0.0
14/09:30am 35.8 36.5 15.5 29 12.9 W 6 13 3 7 1009.8 1008.1 0.0
14/09:00am 34.4 36.3 15.8 33 11.8 CALM 0 0 0 0 1010.2 1008.5 0.0
14/08:30am 32.6 33.7 17.2 39 9.9 NW 7 11 4 6 1009.7 1008.0 0.0
14/08:00am 30.6 31.0 17.3 45 8.5 NNW 11 17 6 9 1009.4 1007.7 0.0
14/07:30am 29.0 30.8 17.5 49 7.4 NNW 4 9 2 5 1009.3 1007.6 0.0
14/07:00am 27.6 29.3 16.2 49 7.1 N 2 9 1 5 1009.2 1007.5 0.0
14/06:30am 26.4 28.3 15.8 52 6.5 CALM 0 4 0 2 1008.8 1007.1 0.0
14/06:00am 25.7 27.6 15.7 54 6.1 CALM 0 0 0 0 1008.5 1006.8 0.0
14/05:30am 26.4 28.2 15.4 50 6.8 CALM 0 0 0 0 1008.1 1006.4 0.0
14/05:00am 27.0 27.3 15.1 48 7.3 N 7 11 4 6 1007.7 1005.9 0.0
14/04:30am 27.9 29.3 14.5 44 8.2 CALM 0 7 0 4 1007.7 1005.9 0.0
14/04:00am 28.6 29.9 14.1 41 8.8 CALM 0 7 0 4 1007.5 1005.7 0.0
14/03:30am 29.0 28.4 13.6 38 9.3 NNE 9 15 5 8 1007.5 1005.7 0.0
14/03:00am 29.1 30.5 14.5 41 8.9 CALM 0 0 0 0 1007.0 1005.2 0.0
14/02:30am 29.5 30.7 13.7 38 9.6 CALM 0 7 0 4 1007.1 1005.3 0.0
14/02:00am 29.5 30.9 14.5 40 9.2 CALM 0 6 0 3 1007.4 1005.6 0.0
14/01:30am 29.2 30.3 14.6 41 8.9 NNW 2 7 1 4 1007.8 1006.0 0.0
14/01:00am 27.9 29.6 15.2 46 7.8 CALM 0 0 0 0 1008.0 1006.3 0.0
14/12:30am 30.9 32.1 13.7 35 10.5 CALM 0 11 0 6 1008.2 1006.5 0.0
14/12:00am 31.8 31.9 11.6 29 11.9 ENE 2 6 1 3 1008.6 1006.9 0.0
 
Date/Time
CST
Temp
°C
App
Temp
°C
Dew
Point
Rel
Hum
%
Delta-T
°C
Wind Press
QNH
hPa
Press
MSL
hPa
Rain
since 9 am
mm
Dir
 
Spd
km/h
Gust
km/h
Spd
kts
Gust
kts
13/11:30pm 31.2 29.9 11.1 29 11.8 E 9 11 5 6 1008.9 1007.2 0.0
13/11:00pm 31.5 29.5 10.2 27 12.3 E 11 13 6 7 1009.1 1007.4 0.0
13/10:30pm 32.2 30.2 10.3 26 12.7 SSE 11 13 6 7 1009.0 1007.3 0.0
13/10:00pm 35.1 31.2 8.8 20 15.1 SSE 19 28 10 15 1008.9 1007.2 0.0
13/09:30pm 34.0 30.8 9.9 23 14.0 S 17 30 9 16 1008.7 1007.0 0.0
13/09:00pm 33.2 31.6 11.7 27 12.8 ESE 11 17 6 9 1008.3 1006.6 0.0
13/08:30pm 33.2 33.9 12.2 28 12.6 CALM 0 0 0 0 1007.9 1006.2 0.0
13/08:00pm 34.1 34.3 10.7 24 13.8 CALM 0 0 0 0 1007.6 1005.8 0.0
13/07:30pm 34.7 33.6 9.9 22 14.5 SE 6 9 3 5 1007.2 1005.4 0.0
13/07:00pm 36.2 33.9 8.9 19 15.8 SSE 11 15 6 8 1006.9 1005.1 0.0
13/06:30pm 37.7 35.9 9.3 18 16.6 SE 9 15 5 8 1006.5 1004.7 0.0
13/06:00pm 39.1 36.1 7.7 15 18.0 SSE 13 26 7 14 1006.3 1004.5 0.0
13/05:30pm 39.2 36.3 9.7 17 17.5 SSE 15 24 8 13 1006.2 1004.4 0.0
13/05:00pm 38.4 34.4 8.1 16 17.4 SE 19 28 10 15 1006.2 1004.4 0.0
13/04:30pm 39.3 36.4 9.8 17 17.5 SE 15 26 8 14 1006.2 1004.4 0.0
13/04:00pm 40.0 37.4 9.4 16 18.1 SSE 13 20 7 11 1006.4 1004.6 0.0
13/03:30pm 40.5 36.8 7.8 14 19.0 SSE 17 28 9 15 1006.4 1004.6 0.0
13/03:00pm 40.1 36.5 8.5 15 18.4 SSE 17 33 9 18 1006.8 1005.0 0.0
13/02:30pm 40.0 38.4 10.3 17 17.8 SE 9 22 5 12 1007.0 1005.2 0.0
13/02:00pm 40.3 36.6 9.6 16 18.2 SSE 19 35 10 19 1007.3 1005.5 0.0
13/01:30pm 39.6 35.8 9.1 16 17.9 S 19 32 10 17 1007.7 1005.9 0.0
13/01:00pm 39.2 35.8 10.5 18 17.2 SSE 19 28 10 15 1008.0 1006.3 0.0
13/12:30pm 39.1 36.0 10.4 18 17.2 ESE 17 28 9 15 1008.5 1006.8 0.0
13/12:00pm 38.8 38.2 11.8 20 16.4 E 6 15 3 8 1008.9 1007.2 0.0
13/11:30am 38.9 37.2 12.6 21 16.2 E 13 24 7 13 1009.4 1007.7 0.0
13/11:00am 38.5 36.8 12.3 21 16.0 NNE 13 24 7 13 1009.8 1008.1 0.0
13/10:30am 37.2 34.7 11.2 21 15.6 NE 15 24 8 13 1010.1 1008.4 0.0
13/10:00am 36.7 34.3 11.5 22 15.1 NE 15 20 8 11 1010.2 1008.5 0.0
13/09:30am 36.1 35.0 13.0 25 14.2 NE 11 20 6 11 1010.3 1008.6 0.0
13/09:00am 34.7 33.2 11.8 25 13.7 NNE 11 15 6 8 1010.4 1008.7 0.0
13/08:30am 33.5 34.9 14.5 31 11.8 CALM 0 6 0 3 1010.4 1008.7 0.0
13/08:00am 31.9 33.8 15.8 38 10.1 CALM 0 4 0 2 1010.3 1008.6 0.0
13/07:30am 29.3 32.2 18.1 51 7.2 CALM 0 2 0 1 1010.2 1008.5 0.0
13/07:00am 26.2 29.1 18.1 61 5.2 CALM 0 0 0 0 1010.0 1008.3 0.0
13/06:30am 27.2 27.4 14.6 46 7.7 NNE 7 11 4 6 1009.4 1007.7 0.0
13/06:00am 25.5 26.2 15.5 54 6.1 NNE 6 11 3 6 1009.3 1007.6 0.0
13/05:30am 26.0 26.6 15.7 53 6.3 NNE 7 13 4 7 1009.0 1007.3 0.0
13/05:00am 25.2 27.4 16.4 58 5.5 CALM 0 7 0 4 1008.9 1007.2 0.0
13/04:30am 25.4 27.4 16.0 56 5.8 CALM 0 0 0 0 1008.7 1007.0 0.0
13/04:00am 24.7 26.7 15.9 58 5.4 CALM 0 7 0 4 1008.4 1006.7 0.0
13/03:30am 27.9 27.9 14.2 43 8.3 NE 7 11 4 6 1008.2 1006.5 0.0
13/03:00am 27.9 27.5 14.2 43 8.3 NNE 9 13 5 7 1008.1 1006.4 0.0
13/02:30am 27.8 27.8 14.1 43 8.3 ENE 7 11 4 6 1008.0 1006.3 0.0
13/02:00am 28.4 28.5 13.9 41 8.7 NE 6 11 3 6 1008.3 1006.6 0.0
13/01:30am 27.4 29.0 14.8 46 7.7 CALM 0 6 0 3 1008.3 1006.6 0.0
13/01:00am 26.8 29.9 18.6 60 5.3 CALM 0 0 0 0 1008.6 1006.9 0.0
13/12:30am 29.1 30.5 14.5 41 8.9 CALM 0 0 0 0 1008.7 1007.0 0.0
13/12:00am 29.5 30.5 13.3 37 9.7 CALM 0 0 0 0 1009.0 1007.3 0.0
 
Date/Time
CST
Temp
°C
App
Temp
°C
Dew
Point
Rel
Hum
%
Delta-T
°C
Wind Press
QNH
hPa
Press
MSL
hPa
Rain
since 9 am
mm
Dir
 
Spd
km/h
Gust
km/h
Spd
kts
Gust
kts
12/11:30pm 30.1 31.4 14.2 38 9.7 CALM 0 0 0 0 1009.2 1007.5 0.0
12/11:00pm 30.7 31.4 13.5 35 10.4 S 2 7 1 4 1009.3 1007.6 0.0
12/10:30pm 31.3 32.1 12.6 31 11.2 CALM 0 0 0 0 1009.4 1007.7 0.0
12/10:00pm 31.6 31.8 14.3 35 10.6 SSE 6 15 3 8 1009.3 1007.6 0.0
12/09:30pm 32.2 33.4 13.9 33 11.2 CALM 0 0 0 0 1008.9 1007.2 0.0
12/09:00pm 33.2 33.4 14.3 32 11.7 ENE 6 7 3 4 1008.6 1006.9 0.0
12/08:30pm 32.2 33.6 14.3 33 11.0 CALM 0 4 0 2 1008.5 1006.8 0.0
12/08:00pm 32.8 32.7 13.4 30 11.8 SSE 6 7 3 4 1008.1 1006.4 0.0
12/07:30pm 34.6 33.6 11.1 24 14.0 E 7 9 4 5 1007.8 1006.0 0.0
12/07:00pm 36.1 33.6 9.6 20 15.4 ESE 13 19 7 10 1007.4 1005.6 0.0
12/06:30pm 37.2 35.5 9.7 19 16.2 ESE 9 17 5 9 1007.0 1005.2 0.0
12/06:00pm 37.8 33.7 8.6 17 16.9 E 20 32 11 17 1006.9 1005.1 0.0
12/05:30pm 38.8 35.5 9.4 17 17.3 SSE 17 24 9 13 1006.7 1004.9 0.0
12/05:00pm 38.8 35.6 8.5 16 17.6 SSE 15 22 8 12 1006.8 1005.0 0.0
12/04:30pm 38.6 34.8 7.4 15 17.8 ESE 17 32 9 17 1006.9 1005.1 0.0
12/04:00pm 39.0 36.1 9.5 17 17.4 SSE 15 32 8 17 1007.0 1005.2 0.0
12/03:30pm 38.9 35.8 10.3 18 17.1 SSE 17 28 9 15 1007.1 1005.3 0.0
12/03:00pm 38.7 35.7 12.5 21 16.1 ESE 20 33 11 18 1007.4 1005.6 0.0
12/02:30pm 38.6 35.3 10.9 19 16.7 SE 19 30 10 16 1007.7 1005.9 0.0
12/02:00pm 38.4 35.7 13.6 23 15.4 ESE 20 30 11 16 1008.0 1006.3 0.0
12/01:30pm 37.9 35.0 11.1 20 16.1 SE 17 33 9 18 1008.4 1006.7 0.0
12/01:00pm 38.0 35.4 11.9 21 15.9 E 17 28 9 15 1008.9 1007.2 0.0
12/12:30pm 37.8 35.5 11.7 21 15.8 SE 15 28 8 15 1009.2 1007.5 0.0
12/12:00pm 37.6 35.5 12.3 22 15.4 SSE 15 30 8 16 1009.9 1008.2 0.0
12/11:30am 36.5 35.4 12.0 23 14.8 ENE 9 20 5 11 1010.3 1008.6 0.0
12/11:00am 36.1 37.4 15.2 28 13.2 SE 2 9 1 5 1010.7 1008.9 0.0
12/10:30am 35.2 36.1 15.0 30 12.7 SE 4 13 2 7 1011.0 1009.2 0.0
12/10:00am 34.6 36.4 16.4 33 11.6 ENE 2 9 1 5 1011.4 1009.6 0.0
12/09:30am 33.0 35.6 18.4 42 9.6 NNW 2 9 1 5 1011.6 1009.8 0.0
12/09:00am 31.8 35.1 19.1 47 8.4 CALM 0 0 0 0 1011.6 1009.8 0.0
12/08:30am 30.8 34.7 20.4 54 7.0 CALM 0 0 0 0 1011.5 1009.7 0.0
12/08:00am 29.2 33.0 20.1 58 6.0 CALM 0 0 0 0 1011.5 1009.7 0.0
12/07:30am 28.3 32.3 20.6 63 5.1 CALM 0 0 0 0 1011.3 1009.5 0.0
12/07:00am 25.9 30.3 21.3 76 3.1 CALM 0 0 0 0 1011.0 1009.2 0.0
12/06:30am 24.5 29.1 21.8 85 1.8 CALM 0 2 0 1 1010.4 1008.7 0.0

Other Formats:

Comma delimited format used in spreadsheet applications
http://www.bom.gov.au/fwo/IDD60801/IDD60801.94255.axf

JavaScript Object Notation format (JSON) in row-major order
http://www.bom.gov.au/fwo/IDD60801/IDD60801.94255.json